Time;durP1;ratioP1;P1;durP2;ratioP2;P2;SDS_P1;SDS_P2;PMS_P1;PMS_P2;Temp;Humidity;BMP_temperature;BMP_pressure;BME280_temperature;BME280_humidity;BME280_pressure;Samples;Min_cycle;Max_cycle;Signal;HPM_P1;HPM_P2
2021/11/13 00:02:09;;;;;;;;;;;;;;;4.45;73.38;101160.39;1716190;84;20319;-62
2021/11/13 00:04:38;;;;;;;;;;;;;;;4.44;73.43;101157.33;1716317;83;20208;-64
2021/11/13 00:07:07;;;;;;;;;;;;;;;4.40;73.36;101150.46;1716363;83;20244;-64
2021/11/13 00:09:37;;;;;;;;;;;;;;;4.35;73.42;101157.66;1716091;84;20212;-64
2021/11/13 00:12:06;;;;;;;;;;;;;;;4.32;73.43;101164.73;1716435;83;20554;-62
2021/11/13 00:14:35;;;;;;;;;;;;;;;4.32;73.38;101160.66;1716212;84;20501;-62
2021/11/13 00:17:04;;;;;;;;;;;;;;;4.31;73.39;101160.80;1716052;84;20208;-62
2021/11/13 00:19:33;;;;;;;;;;;;;;;4.26;73.30;101162.56;1716352;84;20563;-63
2021/11/13 00:22:02;;;;;;;;;;;;;;;4.18;73.54;101162.89;1716490;84;20256;-63
2021/11/13 00:24:31;;;;;;;;;;;;;;;4.14;73.66;101153.68;1716197;84;20200;-63
2021/11/13 00:27:00;;;;;;;;;;;;;;;4.13;73.68;101164.66;1716513;83;20192;-67
2021/11/13 00:29:28;;;;;;;;;;;;;;;4.12;73.72;101161.59;1716360;84;20268;-62
2021/11/13 00:31:58;;;;;;;;;;;;;;;4.15;73.66;101164.03;1716273;83;20188;-62
2021/11/13 00:34:26;;;;;;;;;;;;;;;4.16;73.65;101174.38;1716289;84;20208;-63
2021/11/13 00:36:55;;;;;;;;;;;;;;;4.13;73.71;101172.30;1716536;84;20232;-62
2021/11/13 00:39:23;;;;;;;;;;;;;;;4.11;73.74;101166.16;1716498;83;20526;-63
2021/11/13 00:41:53;;;;;;;;;;;;;;;4.08;73.63;101165.58;1716110;84;20200;-63
2021/11/13 00:44:22;;;;;;;;;;;;;;;4.03;73.66;101168.70;1716330;83;20300;-63
2021/11/13 00:46:52;;;;;;;;;;;;;;;4.00;73.77;101169.47;1716485;84;20197;-63
2021/11/13 00:49:21;;;;;;;;;;;;;;;3.99;73.88;101171.82;1716183;84;20240;-63
2021/11/13 00:51:50;;;;;;;;;;;;;;;3.97;73.92;101172.45;1716227;84;20188;-63
2021/11/13 00:54:20;;;;;;;;;;;;;;;3.93;73.96;101171.02;1716478;84;20564;-63
2021/11/13 00:56:48;;;;;;;;;;;;;;;3.87;73.98;101174.23;1716190;84;20502;-62
2021/11/13 00:59:16;;;;;;;;;;;;;;;3.87;74.19;101175.09;1716285;84;20485;-62
2021/11/13 01:01:45;;;;;;;;;;;;;;;3.88;74.28;101174.59;1716317;84;20212;-63
2021/11/13 01:04:13;;;;;;;;;;;;;;;3.86;74.46;101178.80;1716228;83;20209;-62
2021/11/13 01:06:44;;;;;;;;;;;;;;;3.84;74.45;101179.43;1716252;84;20176;-63
2021/11/13 01:09:13;;;;;;;;;;;;;;;3.80;74.58;101179.34;1716183;84;20593;-64
2021/11/13 01:11:43;;;;;;;;;;;;;;;3.79;74.63;101177.13;1716386;83;20197;-62
2021/11/13 01:14:12;;;;;;;;;;;;;;;3.78;74.72;101177.26;1716118;84;20196;-63
2021/11/13 01:16:41;;;;;;;;;;;;;;;3.77;74.64;101178.25;1716219;83;20188;-63
2021/11/13 01:19:11;;;;;;;;;;;;;;;3.70;74.61;101182.00;1716135;84;20231;-64
2021/11/13 01:21:39;;;;;;;;;;;;;;;3.64;74.58;101176.25;1716140;84;20580;-63
2021/11/13 01:24:12;;;;;;;;;;;;;;;3.59;74.74;101174.45;1716236;83;20526;-62
2021/11/13 01:26:41;;;;;;;;;;;;;;;3.57;74.81;101179.14;1716235;84;20552;-62
2021/11/13 01:29:09;;;;;;;;;;;;;;;3.59;74.80;101176.66;1716293;83;20197;-63
2021/11/13 01:31:39;;;;;;;;;;;;;;;3.62;74.73;101177.74;1716186;83;20240;-63
2021/11/13 01:34:08;;;;;;;;;;;;;;;3.65;74.73;101172.55;1716202;84;20501;-63
2021/11/13 01:36:38;;;;;;;;;;;;;;;3.66;74.71;101176.48;1716190;84;20236;-62
2021/11/13 01:39:07;;;;;;;;;;;;;;;3.66;74.72;101172.42;1716184;84;20215;-62
2021/11/13 01:41:37;;;;;;;;;;;;;;;3.64;74.67;101174.91;1716413;84;20625;-63
2021/11/13 01:44:06;;;;;;;;;;;;;;;3.61;74.63;101179.23;1716214;83;20196;-62
2021/11/13 01:46:35;;;;;;;;;;;;;;;3.57;74.58;101177.78;1716211;83;20203;-64
2021/11/13 01:49:04;;;;;;;;;;;;;;;3.50;74.51;101176.10;1716182;84;20192;-63
2021/11/13 01:51:35;;;;;;;;;;;;;;;3.44;74.60;101175.28;1716473;84;20208;-62
2021/11/13 01:54:06;;;;;;;;;;;;;;;3.38;74.65;101178.03;1716231;84;20203;-63
2021/11/13 01:56:35;;;;;;;;;;;;;;;3.35;74.82;101180.14;1716318;84;20260;-63
2021/11/13 01:59:04;;;;;;;;;;;;;;;3.35;74.80;101185.06;1716232;84;20250;-63
2021/11/13 02:01:32;;;;;;;;;;;;;;;3.34;74.82;101191.97;1716313;83;20212;-63
2021/11/13 02:04:00;;;;;;;;;;;;;;;3.31;74.93;101188.16;1716178;84;20217;-62
2021/11/13 02:06:30;;;;;;;;;;;;;;;3.26;74.89;101189.91;1716170;83;20226;-63
2021/11/13 02:08:58;;;;;;;;;;;;;;;3.23;74.96;101194.20;1716404;84;20269;-63
2021/11/13 02:11:27;;;;;;;;;;;;;;;3.20;74.95;101195.83;1716222;84;20300;-64
2021/11/13 02:13:57;;;;;;;;;;;;;;;3.16;74.91;101195.72;1716031;84;20489;-63
2021/11/13 02:16:26;;;;;;;;;;;;;;;3.16;74.92;101199.78;1694504;83;20265;-63
2021/11/13 02:18:55;;;;;;;;;;;;;;;3.13;74.88;101193.27;1693250;85;20193;-63
2021/11/13 02:21:26;;;;;;;;;;;;;;;3.12;74.90;101199.68;1693313;85;20229;-62
2021/11/13 02:23:53;;;;;;;;;;;;;;;3.11;75.03;101187.98;1693274;85;20189;-63
2021/11/13 02:26:22;;;;;;;;;;;;;;;3.10;75.03;101190.83;1693163;85;20197;-64
2021/11/13 02:28:54;;;;;;;;;;;;;;;3.09;74.95;101191.81;1693576;85;20297;-63
2021/11/13 02:31:25;;;;;;;;;;;;;;;3.07;74.91;101199.21;1693213;85;20254;-63
2021/11/13 02:33:54;;;;;;;;;;;;;;;3.02;75.08;101200.09;1692933;85;20491;-63
2021/11/13 02:36:23;;;;;;;;;;;;;;;3.02;75.30;101205.02;1693331;85;20185;-62
2021/11/13 02:38:55;;;;;;;;;;;;;;;3.03;75.63;101205.88;1693027;85;20185;-64
2021/11/13 02:41:22;;;;;;;;;;;;;;;3.04;75.64;101211.66;1651958;85;20296;-62
2021/11/13 02:43:51;;;;;;;;;;;;;;;3.01;75.47;101211.42;1693243;83;20177;-62
2021/11/13 02:46:20;;;;;;;;;;;;;;;3.00;75.45;101205.64;1693384;85;20249;-65
2021/11/13 02:48:48;;;;;;;;;;;;;;;2.98;75.49;101201.34;1693305;83;20241;-63
2021/11/13 02:51:16;;;;;;;;;;;;;;;3.00;75.52;101205.64;1693058;85;20300;-63
2021/11/13 02:53:46;;;;;;;;;;;;;;;3.06;75.53;101208.32;1693269;85;20531;-62
2021/11/13 02:56:15;;;;;;;;;;;;;;;3.07;75.57;101199.21;1693194;85;20183;-63
2021/11/13 02:58:43;;;;;;;;;;;;;;;3.06;75.69;101203.77;1693204;85;20197;-62
2021/11/13 03:01:12;;;;;;;;;;;;;;;3.07;75.77;101202.78;1693393;85;20189;-63
2021/11/13 03:03:41;;;;;;;;;;;;;;;3.06;75.67;101198.35;1693422;85;20237;-63
2021/11/13 03:06:11;;;;;;;;;;;;;;;3.04;75.63;101200.33;1693261;85;20269;-62
2021/11/13 03:08:40;;;;;;;;;;;;;;;3.01;75.55;101210.56;1693277;85;20241;-63
2021/11/13 03:11:10;;;;;;;;;;;;;;;2.97;75.55;101218.58;1693038;85;20190;-63
2021/11/13 03:13:40;;;;;;;;;;;;;;;2.91;75.50;101225.36;1693324;83;20503;-63
2021/11/13 03:16:09;;;;;;;;;;;;;;;2.86;75.69;101224.39;1693023;84;20214;-64
2021/11/13 03:18:37;;;;;;;;;;;;;;;2.83;75.80;101222.44;1693036;85;20225;-63
2021/11/13 03:21:07;;;;;;;;;;;;;;;2.84;75.76;101215.54;1693201;85;20216;-62
2021/11/13 03:23:40;;;;;;;;;;;;;;;2.83;75.68;101227.36;1693478;85;20535;-63
2021/11/13 03:26:21;;;;;;;;;;;;;;;2.77;75.62;101231.92;1693224;85;20201;-64
2021/11/13 03:28:58;;;;;;;;;;;;;;;2.74;75.86;101224.06;1693500;85;20190;-62
2021/11/13 03:31:28;;;;;;;;;;;;;;;2.71;76.04;101243.25;1693532;85;20569;-62
2021/11/13 03:33:56;;;;;;;;;;;;;;;2.71;76.10;101242.39;1693352;85;20237;-62
2021/11/13 03:36:25;;;;;;;;;;;;;;;2.71;76.09;101245.95;1693424;85;20185;-62
2021/11/13 03:38:56;;;;;;;;;;;;;;;2.69;76.03;101243.87;1693524;85;20249;-62
2021/11/13 03:41:25;;;;;;;;;;;;;;;2.68;76.11;101248.06;1693298;85;20189;-63
2021/11/13 03:43:53;;;;;;;;;;;;;;;2.71;76.01;101241.04;1693647;85;20499;-63
2021/11/13 03:46:23;;;;;;;;;;;;;;;2.73;75.91;101230.45;1616050;88;20527;-63
2021/11/13 03:48:52;;;;;;;;;;;;;;;2.74;75.92;101236.73;1615993;88;20183;-62
2021/11/13 03:51:20;;;;;;;;;;;;;;;2.75;75.96;101233.03;1616239;88;20310;-62
2021/11/13 03:53:49;;;;;;;;;;;;;;;2.72;75.93;101231.45;1616057;88;20250;-63
2021/11/13 03:56:19;;;;;;;;;;;;;;;2.73;76.10;101230.95;1616289;87;20210;-63
2021/11/13 03:58:47;;;;;;;;;;;;;;;2.70;76.02;101228.50;1615946;88;20210;-63
2021/11/13 04:01:17;;;;;;;;;;;;;;;2.65;76.01;101227.53;1616045;88;20215;-62
2021/11/13 04:03:47;;;;;;;;;;;;;;;2.61;76.10;101227.41;1630053;85;20213;-62
2021/11/13 04:06:17;;;;;;;;;;;;;;;2.58;76.09;101226.77;1693436;85;20636;-63
2021/11/13 04:08:47;;;;;;;;;;;;;;;2.58;76.18;101226.77;1693281;85;20186;-63
2021/11/13 04:11:15;;;;;;;;;;;;;;;2.61;76.11;101232.83;1693382;85;20249;-62
2021/11/13 04:13:43;;;;;;;;;;;;;;;2.61;76.08;101234.17;1693438;85;20519;-62
2021/11/13 04:16:12;;;;;;;;;;;;;;;2.61;75.97;101232.83;1687728;83;20507;-62
2021/11/13 04:18:43;;;;;;;;;;;;;;;2.59;75.87;101233.91;1683889;85;20194;-63
2021/11/13 04:21:11;;;;;;;;;;;;;;;2.54;75.94;101231.58;1683825;85;20225;-63
2021/11/13 04:23:40;;;;;;;;;;;;;;;2.50;76.00;101238.22;1683576;85;20198;-62
2021/11/13 04:26:09;;;;;;;;;;;;;;;2.47;76.05;101244.74;1683715;85;20547;-63
2021/11/13 04:28:37;;;;;;;;;;;;;;;2.45;76.18;101237.73;1683673;85;20237;-62
2021/11/13 04:31:06;;;;;;;;;;;;;;;2.46;76.28;101244.87;1683489;85;20190;-65
2021/11/13 04:33:34;;;;;;;;;;;;;;;2.46;76.27;101244.38;1683818;85;20673;-66
2021/11/13 04:36:15;;;;;;;;;;;;;;;2.51;76.25;101243.51;1683711;85;20194;-62
2021/11/13 04:38:37;;;;;;;;;;;;;;;2.49;76.12;101250.89;1683090;85;20296;-62
2021/11/13 04:41:06;;;;;;;;;;;;;;;2.47;76.14;101250.64;1683639;85;20198;-62
2021/11/13 04:43:35;;;;;;;;;;;;;;;2.45;76.18;101243.14;1683552;84;20193;-64
2021/11/13 04:46:03;;;;;;;;;;;;;;;2.39;76.07;101254.47;1683735;85;20507;-62
2021/11/13 04:48:32;;;;;;;;;;;;;;;2.34;76.15;101260.73;1683630;85;20189;-63
2021/11/13 04:51:01;;;;;;;;;;;;;;;2.33;76.36;101259.02;1683633;85;20214;-66
2021/11/13 04:53:31;;;;;;;;;;;;;;;2.28;76.40;101264.80;1684058;85;20305;-62
2021/11/13 04:55:59;;;;;;;;;;;;;;;2.26;76.45;101275.36;1683811;85;20496;-63
2021/11/13 04:58:28;;;;;;;;;;;;;;;2.25;76.64;101274.50;1684139;85;20265;-63
2021/11/13 05:00:57;;;;;;;;;;;;;;;2.29;76.85;101277.83;1683661;85;20213;-62
2021/11/13 05:03:25;;;;;;;;;;;;;;;2.33;76.94;101281.51;1683625;85;20190;-63
2021/11/13 05:05:54;;;;;;;;;;;;;;;2.38;76.84;101282.49;1683993;85;20487;-62
2021/11/13 05:08:24;;;;;;;;;;;;;;;2.33;76.46;101274.75;1683854;84;20245;-63
2021/11/13 05:10:53;;;;;;;;;;;;;;;2.27;76.40;101286.06;1683697;85;20248;-62
2021/11/13 05:13:22;;;;;;;;;;;;;;;2.25;76.48;101288.52;1683697;85;20209;-63
2021/11/13 05:15:50;;;;;;;;;;;;;;;2.21;76.45;101284.70;1686216;83;20197;-62
2021/11/13 05:18:18;;;;;;;;;;;;;;;2.20;76.50;101285.69;1693523;85;20229;-62
2021/11/13 05:20:47;;;;;;;;;;;;;;;2.26;76.69;101295.64;1693340;85;20253;-61
2021/11/13 05:23:15;;;;;;;;;;;;;;;2.29;76.74;101289.50;1693210;83;20262;-62
2021/11/13 05:25:44;;;;;;;;;;;;;;;2.32;76.96;101291.09;1693540;85;20540;-62
2021/11/13 05:28:13;;;;;;;;;;;;;;;2.36;76.98;101298.84;1693517;83;20225;-63
2021/11/13 05:30:41;;;;;;;;;;;;;;;2.38;76.81;101296.02;1693477;83;20512;-63
2021/11/13 05:33:10;;;;;;;;;;;;;;;2.34;76.81;101311.63;1693460;85;20249;-67
2021/11/13 05:35:40;;;;;;;;;;;;;;;2.34;76.95;101320.23;1693640;85;20609;-63
2021/11/13 05:38:08;;;;;;;;;;;;;;;2.32;77.10;101313.59;1693563;85;20488;-62
2021/11/13 05:40:37;;;;;;;;;;;;;;;2.32;77.32;101324.91;1693696;85;20480;-62
2021/11/13 05:43:05;;;;;;;;;;;;;;;2.35;77.52;101321.95;1693456;85;20257;-62
2021/11/13 05:45:34;;;;;;;;;;;;;;;2.38;77.53;101324.41;1693528;85;20193;-62
2021/11/13 05:48:03;;;;;;;;;;;;;;;2.41;77.73;101330.93;1693246;85;20193;-64
2021/11/13 05:50:32;;;;;;;;;;;;;;;2.47;77.95;101329.08;1693734;83;20594;-63
2021/11/13 05:53:00;;;;;;;;;;;;;;;2.52;78.06;101328.22;1693226;85;20296;-68
2021/11/13 05:55:28;;;;;;;;;;;;;;;2.60;78.14;101334.37;1693288;85;20507;-63
2021/11/13 05:57:57;;;;;;;;;;;;;;;2.66;78.17;101329.36;1693580;85;20491;-64
2021/11/13 06:00:27;;;;;;;;;;;;;;;2.74;78.26;101341.77;1693449;85;20185;-63
2021/11/13 06:02:56;;;;;;;;;;;;;;;2.83;78.39;101343.73;1693237;85;20548;-63
2021/11/13 06:05:26;;;;;;;;;;;;;;;2.93;78.53;101354.66;1693218;85;20255;-63
2021/11/13 06:07:55;;;;;;;;;;;;;;;3.04;78.67;101347.88;1693562;85;20495;-63
2021/11/13 06:10:23;;;;;;;;;;;;;;;3.14;78.67;101357.46;1693326;85;20340;-63
2021/11/13 06:12:51;;;;;;;;;;;;;;;3.22;78.63;101359.04;1693309;85;20257;-63
2021/11/13 06:15:22;;;;;;;;;;;;;;;3.30;78.76;101359.30;1693163;85;20234;-64
2021/11/13 06:17:51;;;;;;;;;;;;;;;3.40;78.93;101360.25;1693527;83;20555;-64
2021/11/13 06:20:20;;;;;;;;;;;;;;;3.48;79.08;101357.76;1693357;85;20588;-64
2021/11/13 06:22:49;;;;;;;;;;;;;;;3.57;79.23;101366.97;1693320;85;20237;-63
2021/11/13 06:25:18;;;;;;;;;;;;;;;3.67;79.34;101366.55;1693267;85;20280;-64
2021/11/13 06:27:47;;;;;;;;;;;;;;;3.77;79.34;101372.91;1693169;85;20226;-64
2021/11/13 06:30:16;;;;;;;;;;;;;;;3.87;79.30;101362.15;1693308;85;20221;-63
2021/11/13 06:32:46;;;;;;;;;;;;;;;3.96;79.22;101360.03;1693471;85;20557;-63
2021/11/13 06:35:16;;;;;;;;;;;;;;;3.99;79.18;101361.12;1693417;84;20206;-63
2021/11/13 06:37:47;;;;;;;;;;;;;;;4.03;79.11;101360.38;1693213;85;20181;-63
2021/11/13 06:40:18;;;;;;;;;;;;;;;4.06;79.16;101362.81;1692200;85;20209;-64
2021/11/13 06:42:47;;;;;;;;;;;;;;;4.09;79.15;101359.84;1693351;85;20193;-63
2021/11/13 06:45:16;;;;;;;;;;;;;;;4.14;79.17;101365.73;1693277;85;20193;-62
2021/11/13 06:47:45;;;;;;;;;;;;;;;4.20;79.15;101365.69;1693378;85;20561;-63
2021/11/13 06:50:13;;;;;;;;;;;;;;;4.24;79.12;101368.50;1693295;85;20185;-63
2021/11/13 06:52:41;;;;;;;;;;;;;;;4.27;79.13;101365.03;1693246;85;20213;-64
2021/11/13 06:55:10;;;;;;;;;;;;;;;4.31;79.15;101371.05;1693465;85;20507;-64
2021/11/13 06:57:39;;;;;;;;;;;;;;;4.31;79.26;101371.91;1693383;85;20213;-63
2021/11/13 07:00:10;;;;;;;;;;;;;;;4.33;79.35;101367.20;1693265;85;20293;-64
2021/11/13 07:02:38;;;;;;;;;;;;;;;4.34;79.43;101371.63;1693270;85;20253;-64
2021/11/13 07:05:09;;;;;;;;;;;;;;;4.41;79.46;101371.96;1693329;85;20257;-64
2021/11/13 07:07:38;;;;;;;;;;;;;;;4.46;79.45;101378.70;1693556;83;20495;-63
2021/11/13 07:10:12;;;;;;;;;;;;;;;4.54;79.40;101374.45;1642309;87;20242;-64
2021/11/13 07:12:41;;;;;;;;;;;;;;;4.59;79.32;101379.87;1642370;86;20235;-64
2021/11/13 07:15:10;;;;;;;;;;;;;;;4.60;79.35;101370.73;1642135;86;20160;-63
2021/11/13 07:17:40;;;;;;;;;;;;;;;4.66;79.33;101376.98;1648688;86;20503;-65
2021/11/13 07:20:10;;;;;;;;;;;;;;;4.69;79.30;101373.13;1649928;87;20161;-63
2021/11/13 07:22:39;;;;;;;;;;;;;;;4.73;79.29;101383.58;1649990;87;20495;-65
2021/11/13 07:25:13;;;;;;;;;;;;;;;4.87;79.56;101384.21;1649988;87;20268;-62
2021/11/13 07:27:40;;;;;;;;;;;;;;;5.12;79.80;101383.73;1663256;84;20296;-63
2021/11/13 07:30:12;;;;;;;;;;;;;;;5.48;79.68;101392.28;1706417;84;20180;-64
2021/11/13 07:32:40;;;;;;;;;;;;;;;5.86;79.31;101390.13;1706304;84;20686;-63
2021/11/13 07:35:10;;;;;;;;;;;;;;;6.22;78.57;101383.97;1706506;84;20189;-63
2021/11/13 07:37:38;;;;;;;;;;;;;;;6.62;77.47;101388.36;1706350;84;20232;-63
2021/11/13 07:40:09;;;;;;;;;;;;;;;6.97;75.89;101393.09;1706553;84;20248;-65
2021/11/13 07:42:38;;;;;;;;;;;;;;;7.21;74.10;101392.58;1706233;84;20607;-66
2021/11/13 07:45:07;;;;;;;;;;;;;;;7.35;72.83;101391.22;1706251;84;20357;-64
2021/11/13 07:47:37;;;;;;;;;;;;;;;7.54;72.40;101396.03;1706565;84;20208;-64
2021/11/13 07:50:06;;;;;;;;;;;;;;;7.82;71.21;101383.73;1706345;84;20241;-64
2021/11/13 07:52:35;;;;;;;;;;;;;;;8.05;70.46;101386.84;1706374;84;20266;-63
2021/11/13 07:55:04;;;;;;;;;;;;;;;8.27;69.26;101388.57;1706295;84;20510;-62
2021/11/13 07:57:33;;;;;;;;;;;;;;;8.43;67.98;101384.28;1706518;84;20201;-64
2021/11/13 08:00:02;;;;;;;;;;;;;;;8.50;67.61;101384.88;1706393;83;20540;-64
2021/11/13 08:02:34;;;;;;;;;;;;;;;8.67;67.71;101379.52;1705337;84;20256;-65
2021/11/13 08:05:03;;;;;;;;;;;;;;;8.84;66.68;101382.18;1706233;84;20209;-64
2021/11/13 08:07:33;;;;;;;;;;;;;;;8.89;66.19;101385.80;1706349;84;20209;-63
2021/11/13 08:10:04;;;;;;;;;;;;;;;8.90;65.86;101384.27;1706404;83;20596;-63
2021/11/13 08:12:32;;;;;;;;;;;;;;;8.94;65.74;101377.11;1706311;84;20252;-64
2021/11/13 08:15:01;;;;;;;;;;;;;;;8.96;65.46;101380.02;1706216;84;20177;-65
2021/11/13 08:17:30;;;;;;;;;;;;;;;8.92;65.03;101383.25;1711976;83;20572;-64
2021/11/13 08:20:00;;;;;;;;;;;;;;;8.85;64.97;101381.67;1715427;84;20248;-65
2021/11/13 08:22:28;;;;;;;;;;;;;;;8.74;64.85;101380.58;1715296;83;20298;-64
2021/11/13 08:24:58;;;;;;;;;;;;;;;8.60;65.16;101384.77;1716514;84;20579;-63
2021/11/13 08:27:26;;;;;;;;;;;;;;;8.47;65.48;101392.02;1716216;84;20255;-63
2021/11/13 08:29:55;;;;;;;;;;;;;;;8.40;65.72;101391.42;1716381;84;20239;-63
2021/11/13 08:32:25;;;;;;;;;;;;;;;8.29;66.02;101388.41;1716373;84;20188;-63
2021/11/13 08:34:54;;;;;;;;;;;;;;;8.25;66.28;101381.55;1716217;84;20487;-65
2021/11/13 08:37:23;;;;;;;;;;;;;;;8.22;66.45;101385.45;1716209;84;20228;-64
2021/11/13 08:39:52;;;;;;;;;;;;;;;8.22;66.59;101385.97;1716393;84;20186;-63
2021/11/13 08:42:21;;;;;;;;;;;;;;;8.20;66.50;101389.36;1716539;83;20243;-63
2021/11/13 08:44:51;;;;;;;;;;;;;;;8.16;66.62;101387.97;1716345;84;20216;-64
2021/11/13 08:47:22;;;;;;;;;;;;;;;8.15;66.63;101386.25;1716248;84;20188;-64
2021/11/13 08:49:53;;;;;;;;;;;;;;;8.09;66.51;101378.69;1716363;84;20200;-63
2021/11/13 08:52:21;;;;;;;;;;;;;;;8.04;66.81;101388.72;1716161;84;20502;-63
2021/11/13 08:54:52;;;;;;;;;;;;;;;8.03;66.86;101390.23;1704555;82;20320;-65
2021/11/13 08:57:21;;;;;;;;;;;;;;;7.99;67.00;101388.33;1716523;84;20216;-71
2021/11/13 08:59:52;;;;;;;;;;;;;;;7.98;67.16;101385.77;1709487;83;20230;-70
2021/11/13 09:02:24;;;;;;;;;;;;;;;7.99;67.37;101387.47;1698874;84;20581;-69
2021/11/13 09:04:53;;;;;;;;;;;;;;;8.01;67.26;101390.91;1699675;84;20512;-71
2021/11/13 09:07:21;;;;;;;;;;;;;;;8.03;66.73;101384.27;1704768;84;20506;-70
2021/11/13 09:09:51;;;;;;;;;;;;;;;8.03;66.49;101371.13;1703476;84;20335;-66
2021/11/13 09:12:26;;;;;;;;;;;;;;;8.05;65.77;101374.56;1694464;84;20203;-72
2021/11/13 09:15:02;;;;;;;;;;;;;;;8.04;65.68;101373.70;1687893;84;20565;-71
2021/11/13 09:17:49;;;;;;;;;;;;;;;8.05;65.70;101375.92;1686610;82;20327;-71
2021/11/13 09:20:20;;;;;;;;;;;;;;;8.07;65.77;101379.36;1687329;85;20217;-71
2021/11/13 09:22:48;;;;;;;;;;;;;;;8.07;65.83;101382.09;1679063;85;20584;-71
2021/11/13 09:25:16;;;;;;;;;;;;;;;8.08;65.83;101381.07;1679237;85;20221;-70
2021/11/13 09:27:45;;;;;;;;;;;;;;;8.09;65.78;101371.87;1669873;85;20216;-71
2021/11/13 09:30:17;;;;;;;;;;;;;;;8.11;65.74;101374.78;1686900;85;20236;-72
2021/11/13 09:32:47;;;;;;;;;;;;;;;8.13;65.53;101374.12;1677765;85;20211;-72
2021/11/13 09:35:16;;;;;;;;;;;;;;;8.15;65.28;101372.59;1673982;85;20204;-71
2021/11/13 09:37:46;;;;;;;;;;;;;;;8.18;65.41;101377.74;1667836;84;20267;-71
2021/11/13 09:40:16;;;;;;;;;;;;;;;8.23;65.55;101379.48;1686997;85;20289;-72
2021/11/13 09:42:46;;;;;;;;;;;;;;;8.28;65.59;101373.05;1668283;85;20205;-71
2021/11/13 09:45:14;;;;;;;;;;;;;;;8.32;65.66;101370.34;1679445;85;20209;-71
2021/11/13 09:47:43;;;;;;;;;;;;;;;8.35;65.42;101368.69;1681715;85;20222;-71
2021/11/13 09:50:11;;;;;;;;;;;;;;;8.38;65.04;101371.61;1688093;85;20279;-75
2021/11/13 09:52:41;;;;;;;;;;;;;;;8.37;64.97;101369.39;1671954;85;20646;-71
2021/11/13 09:55:09;;;;;;;;;;;;;;;8.39;64.97;101363.77;1680782;85;20233;-70
2021/11/13 09:57:38;;;;;;;;;;;;;;;8.38;65.13;101360.18;1672138;85;20255;-71
2021/11/13 10:00:15;;;;;;;;;;;;;;;8.36;65.27;101358.12;1688293;85;20292;-70
2021/11/13 10:02:44;;;;;;;;;;;;;;;8.34;65.44;101366.12;1685057;84;20301;-70
2021/11/13 10:05:12;;;;;;;;;;;;;;;8.29;65.47;101362.47;1677310;85;20224;-71
2021/11/13 10:07:42;;;;;;;;;;;;;;;8.24;65.64;101357.48;1684501;85;20244;-70
2021/11/13 10:10:13;;;;;;;;;;;;;;;8.18;65.73;101360.00;1682682;84;20483;-71
2021/11/13 10:12:44;;;;;;;;;;;;;;;8.13;65.93;101368.66;1674872;85;20213;-71
2021/11/13 10:15:25;;;;;;;;;;;;;;;8.09;66.12;101363.17;1678450;85;20184;-71
2021/11/13 10:18:13;;;;;;;;;;;;;;;8.07;66.30;101364.34;1637264;85;20205;-69
2021/11/13 10:20:45;;;;;;;;;;;;;;;8.06;66.43;101368.09;1675305;85;20190;-70
2021/11/13 10:23:29;;;;;;;;;;;;;;;8.04;66.41;101376.94;1670899;85;20185;-70
2021/11/13 10:26:01;;;;;;;;;;;;;;;8.04;66.52;101368.75;1663835;84;20265;-71
2021/11/13 10:28:30;;;;;;;;;;;;;;;8.04;66.51;101361.93;1659609;85;20251;-70
2021/11/13 10:31:07;;;;;;;;;;;;;;;8.01;66.50;101361.73;1671327;84;20600;-73
2021/11/13 10:33:35;;;;;;;;;;;;;;;8.01;66.55;101360.88;1667670;85;20329;-71
2021/11/13 10:36:05;;;;;;;;;;;;;;;8.00;66.56;101361.89;1617661;88;20564;-72
2021/11/13 10:38:34;;;;;;;;;;;;;;;7.99;66.75;101365.13;1635936;87;20627;-72
2021/11/13 10:41:07;;;;;;;;;;;;;;;7.99;66.70;101359.67;1617964;88;20200;-71
2021/11/13 10:43:44;;;;;;;;;;;;;;;7.99;66.70;101365.64;1603499;89;20175;-69
2021/11/13 10:46:21;;;;;;;;;;;;;;;7.99;66.70;101365.13;1598594;88;20194;-71
2021/11/13 10:48:52;;;;;;;;;;;;;;;8.01;66.71;101366.34;1616970;87;20499;-71
2021/11/13 10:51:29;;;;;;;;;;;;;;;8.04;66.70;101370.12;1616587;88;20477;-71
2021/11/13 10:53:59;;;;;;;;;;;;;;;8.05;66.73;101373.20;1609659;89;20174;-70
2021/11/13 10:56:28;;;;;;;;;;;;;;;8.07;66.67;101369.80;1611110;88;20205;-73
2021/11/13 10:58:58;;;;;;;;;;;;;;;8.09;66.70;101364.53;1621809;88;20243;-69
2021/11/13 11:01:34;;;;;;;;;;;;;;;8.13;66.79;101367.80;1604517;89;20514;-69
2021/11/13 11:04:14;;;;;;;;;;;;;;;8.14;66.57;101368.16;1616539;87;20274;-70
2021/11/13 11:06:47;;;;;;;;;;;;;;;8.12;66.38;101368.31;1614208;88;20563;-70
2021/11/13 11:09:31;;;;;;;;;;;;;;;8.11;66.36;101364.38;1609936;87;20568;-72
2021/11/13 11:12:03;;;;;;;;;;;;;;;8.09;66.30;101367.77;1613175;89;20217;-66
2021/11/13 11:14:32;;;;;;;;;;;;;;;8.09;66.44;101365.05;1599427;88;20223;-70
2021/11/13 11:17:13;;;;;;;;;;;;;;;8.07;66.57;101372.02;1605733;88;20175;-71
2021/11/13 11:19:46;;;;;;;;;;;;;;;8.07;66.49;101369.30;1595113;90;20568;-72
2021/11/13 11:22:15;;;;;;;;;;;;;;;8.07;66.55;101368.44;1595221;89;20198;-70
2021/11/13 11:24:49;;;;;;;;;;;;;;;8.06;66.51;101363.48;1630023;86;20242;-71
2021/11/13 11:27:30;;;;;;;;;;;;;;;8.07;66.50;101373.89;1633073;88;20194;-70
2021/11/13 11:30:01;;;;;;;;;;;;;;;8.05;66.44;101370.47;1648433;87;20233;-69
2021/11/13 11:32:35;;;;;;;;;;;;;;;8.00;66.43;101372.30;1620903;87;20563;-70
2021/11/13 11:35:10;;;;;;;;;;;;;;;7.97;66.49;101378.08;1633429;87;20223;-71
2021/11/13 11:37:40;;;;;;;;;;;;;;;7.96;66.63;101377.73;1648474;87;20201;-70
2021/11/13 11:40:11;;;;;;;;;;;;;;;7.96;66.71;101373.63;1605044;89;20401;-72
2021/11/13 11:42:40;;;;;;;;;;;;;;;8.01;66.77;101370.44;1626507;88;20199;-70
2021/11/13 11:45:10;;;;;;;;;;;;;;;8.05;66.68;101365.02;1610494;89;20203;-69
2021/11/13 11:47:39;;;;;;;;;;;;;;;8.07;66.52;101363.84;1601573;88;20223;-71
2021/11/13 11:50:09;;;;;;;;;;;;;;;8.08;66.44;101372.37;1617493;88;20229;-69
2021/11/13 11:52:38;;;;;;;;;;;;;;;8.08;66.40;101371.01;1613393;88;20170;-69
2021/11/13 11:55:08;;;;;;;;;;;;;;;8.09;66.40;101374.09;1590142;89;20222;-69
2021/11/13 11:57:39;;;;;;;;;;;;;;;8.09;66.41;101367.77;1622413;87;20231;-70
2021/11/13 12:00:16;;;;;;;;;;;;;;;8.06;66.37;101366.72;1621876;88;20493;-71
2021/11/13 12:02:50;;;;;;;;;;;;;;;8.02;66.49;101360.73;1618832;88;20552;-70
2021/11/13 12:05:22;;;;;;;;;;;;;;;8.02;66.56;101366.69;1619723;89;20190;-70
2021/11/13 12:07:52;;;;;;;;;;;;;;;8.01;66.67;101359.52;1633247;88;20614;-69
2021/11/13 12:10:26;;;;;;;;;;;;;;;8.03;66.61;101365.17;1613701;88;20572;-72
2021/11/13 12:13:06;;;;;;;;;;;;;;;8.05;66.65;101367.73;1605342;89;20485;-69
2021/11/13 12:15:49;;;;;;;;;;;;;;;8.06;67.02;101359.90;1595114;90;20172;-74
2021/11/13 12:18:30;;;;;;;;;;;;;;;8.09;66.83;101359.59;1628897;86;20198;-67
2021/11/13 12:21:12;;;;;;;;;;;;;;;8.09;66.65;101359.08;1637778;88;20190;-70
2021/11/13 12:23:45;;;;;;;;;;;;;;;8.11;66.71;101358.41;1581280;89;20704;-67
2021/11/13 12:26:19;;;;;;;;;;;;;;;8.09;66.70;101356.86;1581318;91;20196;-67
2021/11/13 12:28:54;;;;;;;;;;;;;;;8.06;66.83;101362.13;1581397;89;20170;-68
2021/11/13 12:31:43;;;;;;;;;;;;;;;8.04;66.89;101359.20;1585413;88;20560;-69
2021/11/13 12:34:15;;;;;;;;;;;;;;;8.02;66.90;101355.77;1596437;89;20519;-69
2021/11/13 12:36:57;;;;;;;;;;;;;;;7.98;66.92;101350.28;1590931;90;20229;-71
2021/11/13 12:39:26;;;;;;;;;;;;;;;7.94;67.03;101351.96;1608513;89;20226;-70
2021/11/13 12:41:57;;;;;;;;;;;;;;;7.86;67.14;101340.98;1614258;87;20223;-69
2021/11/13 12:44:31;;;;;;;;;;;;;;;7.83;67.27;101348.62;1640578;87;20206;-69
2021/11/13 12:47:01;;;;;;;;;;;;;;;7.79;67.36;101345.31;1639331;86;20308;-69
2021/11/13 12:49:33;;;;;;;;;;;;;;;7.78;67.50;101344.10;1657971;86;20510;-73
2021/11/13 12:52:04;;;;;;;;;;;;;;;7.77;67.51;101335.57;1655436;86;20226;-68
2021/11/13 12:54:38;;;;;;;;;;;;;;;7.78;67.60;101342.23;1655337;86;20287;-69
2021/11/13 12:57:14;;;;;;;;;;;;;;;7.76;67.67;101337.44;1664740;86;20280;-68
2021/11/13 12:59:45;;;;;;;;;;;;;;;7.73;67.70;101340.48;1663209;86;20208;-69
2021/11/13 13:02:17;;;;;;;;;;;;;;;7.70;67.76;101336.70;1663759;86;20568;-69
2021/11/13 13:04:46;;;;;;;;;;;;;;;7.66;68.26;101342.13;1664522;86;20195;-70